createdAt,value
2019-03-03T00:00:06.315Z,0
2019-03-03T00:01:14.355Z,0
2019-03-03T00:02:22.418Z,0
2019-03-03T00:03:30.491Z,0
2019-03-03T00:04:38.557Z,0
2019-03-03T00:05:46.602Z,0
2019-03-03T00:06:54.671Z,0
2019-03-03T00:08:02.725Z,0
2019-03-03T00:09:10.791Z,0
2019-03-03T00:10:18.857Z,0
2019-03-03T00:11:26.904Z,0
2019-03-03T00:12:34.970Z,0
2019-03-03T00:13:43.031Z,0
2019-03-03T00:14:51.087Z,0
2019-03-03T00:15:59.145Z,0
2019-03-03T00:17:07.195Z,0
2019-03-03T00:18:15.279Z,0
2019-03-03T00:19:23.320Z,0
2019-03-03T00:20:31.390Z,0
2019-03-03T00:21:39.489Z,0
2019-03-03T00:22:47.485Z,0
2019-03-03T00:23:55.561Z,0
2019-03-03T00:25:03.621Z,0
2019-03-03T00:26:11.691Z,0
2019-03-03T00:27:19.750Z,0
2019-03-03T00:28:27.787Z,0
2019-03-03T00:29:35.911Z,0
2019-03-03T00:30:43.937Z,0
2019-03-03T00:31:52.001Z,0
2019-03-03T00:33:00.044Z,0
2019-03-03T00:34:08.138Z,0
2019-03-03T00:35:16.166Z,0
2019-03-03T00:36:24.230Z,0
2019-03-03T00:37:32.299Z,0
2019-03-03T00:38:40.341Z,0
2019-03-03T00:39:48.419Z,0
2019-03-03T00:40:56.473Z,0
2019-03-03T00:42:04.520Z,0
2019-03-03T00:43:12.596Z,0
2019-03-03T00:44:20.647Z,0
2019-03-03T00:45:28.695Z,0
2019-03-03T00:46:36.766Z,0
2019-03-03T00:47:44.833Z,0
2019-03-03T00:48:52.903Z,0
2019-03-03T00:50:00.940Z,0
2019-03-03T00:51:09.004Z,0
2019-03-03T00:52:17.060Z,0
2019-03-03T00:53:25.129Z,0
2019-03-03T00:54:33.182Z,0
2019-03-03T00:55:41.245Z,0
2019-03-03T00:56:49.302Z,0
2019-03-03T00:57:57.345Z,0
2019-03-03T00:59:05.419Z,0
2019-03-03T01:00:13.497Z,0
2019-03-03T01:01:21.539Z,0
2019-03-03T01:02:29.832Z,0
2019-03-03T01:03:37.638Z,0
2019-03-03T01:04:45.937Z,0
2019-03-03T01:05:53.782Z,0
2019-03-03T01:07:01.851Z,0
2019-03-03T01:08:09.942Z,0
2019-03-03T01:09:17.935Z,0
2019-03-03T01:10:26.019Z,0
2019-03-03T01:11:34.088Z,0
2019-03-03T01:12:42.184Z,0
2019-03-03T01:13:50.196Z,0
2019-03-03T01:14:58.254Z,0
2019-03-03T01:16:06.380Z,0
2019-03-03T01:17:14.373Z,0
2019-03-03T01:18:22.437Z,0
2019-03-03T01:19:30.501Z,0
2019-03-03T01:20:38.567Z,0
2019-03-03T01:21:46.612Z,0
2019-03-03T01:22:54.686Z,0
2019-03-03T01:24:02.748Z,0
2019-03-03T01:25:10.813Z,0
2019-03-03T01:26:18.874Z,0
2019-03-03T01:27:26.916Z,0
2019-03-03T01:28:34.988Z,0
2019-03-03T01:29:43.054Z,0
2019-03-03T01:30:51.109Z,0
2019-03-03T01:31:59.159Z,0
2019-03-03T01:33:07.196Z,0
2019-03-03T01:34:15.284Z,0
2019-03-03T01:35:23.341Z,0
2019-03-03T01:36:31.396Z,0
2019-03-03T01:37:39.467Z,0
2019-03-03T01:38:47.499Z,0
2019-03-03T01:39:55.573Z,0
2019-03-03T01:41:03.656Z,0
2019-03-03T01:42:11.736Z,0
2019-03-03T01:43:19.772Z,0
2019-03-03T01:44:27.798Z,0
2019-03-03T01:45:35.893Z,0
2019-03-03T01:46:43.943Z,0
2019-03-03T01:47:52.010Z,0
2019-03-03T01:49:00.066Z,0
2019-03-03T01:50:08.098Z,0
2019-03-03T01:51:16.186Z,0
2019-03-03T01:52:24.234Z,0
2019-03-03T01:53:32.299Z,0
2019-03-03T01:54:40.353Z,0
2019-03-03T01:55:48.415Z,0
2019-03-03T01:56:56.493Z,0
2019-03-03T01:58:04.535Z,0
2019-03-03T01:59:12.597Z,0
2019-03-03T02:00:20.652Z,0
2019-03-03T02:01:28.722Z,0
2019-03-03T02:02:36.771Z,0
2019-03-03T02:03:44.836Z,0
2019-03-03T02:04:52.905Z,0
2019-03-03T02:06:00.975Z,0
2019-03-03T02:07:09.184Z,0
2019-03-03T02:08:17.221Z,0
2019-03-03T02:09:25.142Z,0
2019-03-03T02:10:33.208Z,0
2019-03-03T02:11:41.260Z,0
2019-03-03T02:12:49.321Z,0
2019-03-03T02:13:57.346Z,0
2019-03-03T02:15:05.439Z,0
2019-03-03T02:16:13.488Z,0
2019-03-03T02:17:21.548Z,0
2019-03-03T02:18:29.613Z,0
2019-03-03T02:19:37.645Z,0
2019-03-03T02:20:45.785Z,0
2019-03-03T02:21:53.795Z,0
2019-03-03T02:23:01.855Z,0
2019-03-03T02:24:09.906Z,0
2019-03-03T02:25:17.946Z,0
2019-03-03T02:26:26.032Z,0
2019-03-03T02:27:34.102Z,0
2019-03-03T02:28:42.148Z,0
2019-03-03T02:29:50.212Z,0
2019-03-03T02:30:58.263Z,0
2019-03-03T02:32:06.335Z,0
2019-03-03T02:33:14.387Z,0
2019-03-03T02:34:22.450Z,0
2019-03-03T02:35:30.507Z,0
2019-03-03T02:36:38.559Z,0
2019-03-03T02:37:46.622Z,0
2019-03-03T02:38:54.697Z,0
2019-03-03T02:40:02.740Z,0
2019-03-03T02:41:10.806Z,0
2019-03-03T02:42:18.880Z,0
2019-03-03T02:43:26.924Z,0
2019-03-03T02:44:34.990Z,0
2019-03-03T02:45:43.041Z,0
2019-03-03T02:46:51.099Z,0
2019-03-03T02:47:59.148Z,0
2019-03-03T02:49:07.200Z,0
2019-03-03T02:50:15.297Z,0
2019-03-03T02:51:23.326Z,0
2019-03-03T02:52:31.392Z,0
2019-03-03T02:53:39.452Z,0
2019-03-03T02:54:47.487Z,0
2019-03-03T02:55:55.569Z,0
2019-03-03T02:57:03.617Z,0
2019-03-03T02:58:11.699Z,0
2019-03-03T02:59:19.750Z,0
2019-03-03T03:00:27.792Z,0
2019-03-03T03:01:35.864Z,0
2019-03-03T03:02:43.933Z,0
2019-03-03T03:03:51.985Z,0
2019-03-03T03:05:00.054Z,0
2019-03-03T03:06:08.094Z,0
2019-03-03T03:07:16.181Z,0
2019-03-03T03:08:24.264Z,0
2019-03-03T03:09:32.305Z,0
2019-03-03T03:10:40.348Z,0
2019-03-03T03:11:48.401Z,0
2019-03-03T03:12:56.499Z,0
2019-03-03T03:14:04.527Z,0
2019-03-03T03:15:12.577Z,0
2019-03-03T03:16:20.636Z,0
2019-03-03T03:17:28.694Z,0
2019-03-03T03:18:36.793Z,0
2019-03-03T03:19:44.825Z,0
2019-03-03T03:20:52.885Z,0
2019-03-03T03:22:00.946Z,0
2019-03-03T03:23:08.992Z,0
2019-03-03T03:24:17.068Z,0
2019-03-03T03:25:25.112Z,0
2019-03-03T03:26:33.172Z,0
2019-03-03T03:27:41.237Z,0
2019-03-03T03:28:49.294Z,0
2019-03-03T03:29:57.335Z,0
2019-03-03T03:31:05.516Z,0
2019-03-03T03:32:13.477Z,0
2019-03-03T03:33:21.526Z,0
2019-03-03T03:34:29.617Z,0
2019-03-03T03:35:37.621Z,0
2019-03-03T03:36:45.713Z,0
2019-03-03T03:37:53.761Z,0
2019-03-03T03:39:01.877Z,0
2019-03-03T03:40:09.882Z,0
2019-03-03T03:41:17.936Z,0
2019-03-03T03:42:26.003Z,0
2019-03-03T03:43:34.063Z,0
2019-03-03T03:44:42.134Z,0
2019-03-03T03:45:50.181Z,0
2019-03-03T03:46:58.229Z,0
2019-03-03T03:48:06.313Z,0
2019-03-03T03:49:14.359Z,0
2019-03-03T03:50:22.419Z,0
2019-03-03T03:51:30.505Z,0
2019-03-03T03:52:38.530Z,0
2019-03-03T03:53:46.582Z,0
2019-03-03T03:54:54.656Z,0
2019-03-03T03:56:02.711Z,0
2019-03-03T03:57:10.759Z,0
2019-03-03T03:58:18.888Z,0
2019-03-03T03:59:26.883Z,0
2019-03-03T04:00:34.942Z,0
2019-03-03T04:01:43.008Z,0
2019-03-03T04:02:51.064Z,0
2019-03-03T04:03:59.129Z,0
2019-03-03T04:05:07.164Z,0
2019-03-03T04:06:15.240Z,0
2019-03-03T04:07:23.287Z,0
2019-03-03T04:08:31.358Z,0
2019-03-03T04:09:39.415Z,0
2019-03-03T04:10:47.438Z,0
2019-03-03T04:11:55.534Z,0
2019-03-03T04:13:03.595Z,0
2019-03-03T04:14:11.704Z,0
2019-03-03T04:15:19.710Z,0
2019-03-03T04:16:27.727Z,0
2019-03-03T04:17:35.833Z,0
2019-03-03T04:18:43.870Z,0
2019-03-03T04:19:51.937Z,0
2019-03-03T04:21:00.001Z,0
2019-03-03T04:22:08.055Z,0
2019-03-03T04:23:16.126Z,0
2019-03-03T04:24:24.178Z,0
2019-03-03T04:25:32.222Z,0
2019-03-03T04:26:40.294Z,0
2019-03-03T04:27:48.332Z,0
2019-03-03T04:28:56.400Z,0
2019-03-03T04:30:04.475Z,0
2019-03-03T04:31:12.533Z,0
2019-03-03T04:32:20.583Z,0
2019-03-03T04:33:28.640Z,0
2019-03-03T04:34:36.693Z,0
2019-03-03T04:35:44.764Z,0
2019-03-03T04:36:52.817Z,0
2019-03-03T04:38:00.874Z,0
2019-03-03T04:39:08.933Z,0
2019-03-03T04:40:16.992Z,0
2019-03-03T04:41:25.077Z,0
2019-03-03T04:42:33.099Z,0
2019-03-03T04:43:41.165Z,0
2019-03-03T04:44:49.230Z,0
2019-03-03T04:45:57.272Z,0
2019-03-03T04:47:05.332Z,0
2019-03-03T04:48:13.407Z,0
2019-03-03T04:49:21.455Z,0
2019-03-03T04:50:29.513Z,0
2019-03-03T04:51:37.581Z,0
2019-03-03T04:52:45.638Z,0
2019-03-03T04:53:53.701Z,0
2019-03-03T04:55:01.751Z,0
2019-03-03T04:56:09.813Z,0
2019-03-03T04:57:17.840Z,0
2019-03-03T04:58:25.933Z,0
2019-03-03T04:59:33.990Z,0
2019-03-03T05:00:42.042Z,0
2019-03-03T05:01:50.111Z,0
2019-03-03T05:02:58.166Z,0
2019-03-03T05:04:06.227Z,0
2019-03-03T05:05:14.316Z,0
2019-03-03T05:06:22.344Z,0
2019-03-03T05:07:30.498Z,0
2019-03-03T05:08:38.464Z,0
2019-03-03T05:09:46.520Z,0
2019-03-03T05:10:54.567Z,0
2019-03-03T05:12:02.650Z,0
2019-03-03T05:13:10.694Z,0
2019-03-03T05:14:18.742Z,0
2019-03-03T05:15:26.809Z,0
2019-03-03T05:16:34.868Z,0
2019-03-03T05:17:42.921Z,0
2019-03-03T05:18:50.983Z,0
2019-03-03T05:19:59.045Z,0
2019-03-03T05:21:07.086Z,0
2019-03-03T05:22:15.164Z,0
2019-03-03T05:23:23.223Z,0
2019-03-03T05:24:34.136Z,0
2019-03-03T05:25:39.342Z,0
2019-03-03T05:26:47.359Z,0
2019-03-03T05:27:55.459Z,0
2019-03-03T05:29:03.504Z,0
2019-03-03T05:30:11.577Z,0
2019-03-03T05:31:19.635Z,0
2019-03-03T05:32:27.662Z,0
2019-03-03T05:33:35.738Z,0
2019-03-03T05:34:43.818Z,0
2019-03-03T05:35:51.867Z,0
2019-03-03T05:36:59.918Z,0
2019-03-03T05:38:07.958Z,0
2019-03-03T05:39:16.040Z,0
2019-03-03T05:40:24.125Z,0
2019-03-03T05:41:32.151Z,0
2019-03-03T05:42:40.213Z,0
2019-03-03T05:43:48.294Z,0
2019-03-03T05:44:56.312Z,0
2019-03-03T05:46:04.385Z,0
2019-03-03T05:47:12.478Z,0
2019-03-03T05:48:20.537Z,0
2019-03-03T05:49:28.544Z,0
2019-03-03T05:50:36.608Z,0
2019-03-03T05:51:44.708Z,0
2019-03-03T05:52:52.742Z,0
2019-03-03T05:54:00.785Z,0
2019-03-03T05:55:08.875Z,5
2019-03-03T05:56:18.842Z,5
2019-03-03T05:57:24.974Z,5
2019-03-03T05:58:33.039Z,5
2019-03-03T05:59:41.088Z,5
2019-03-03T06:00:49.149Z,5
2019-03-03T06:01:57.192Z,5
2019-03-03T06:03:05.260Z,5
2019-03-03T06:04:13.349Z,10
2019-03-03T06:05:21.381Z,10
2019-03-03T06:06:29.439Z,10
2019-03-03T06:07:37.466Z,10
2019-03-03T06:08:45.553Z,10
2019-03-03T06:09:53.607Z,15
2019-03-03T06:11:01.685Z,15
2019-03-03T06:12:09.736Z,15
2019-03-03T06:13:17.812Z,20
2019-03-03T06:14:25.853Z,20
2019-03-03T06:15:33.908Z,20
2019-03-03T06:16:41.982Z,25
2019-03-03T06:17:50.014Z,25
2019-03-03T06:18:58.053Z,25
2019-03-03T06:20:06.140Z,25
2019-03-03T06:21:14.367Z,25
2019-03-03T06:22:22.245Z,30
2019-03-03T06:23:30.322Z,30
2019-03-03T06:24:38.403Z,30
2019-03-03T06:25:46.429Z,30
2019-03-03T06:26:54.489Z,35
2019-03-03T06:28:02.556Z,35
2019-03-03T06:29:10.607Z,40
2019-03-03T06:30:18.700Z,40
2019-03-03T06:31:26.723Z,40
2019-03-03T06:32:35.411Z,45
2019-03-03T06:33:42.830Z,45
2019-03-03T06:34:50.901Z,50
2019-03-03T06:35:58.945Z,50
2019-03-03T06:37:07.006Z,55
2019-03-03T06:38:15.081Z,60
2019-03-03T06:39:23.135Z,60
2019-03-03T06:40:31.202Z,65
2019-03-03T06:41:39.264Z,70
2019-03-03T06:42:47.301Z,70
2019-03-03T06:43:55.430Z,70
2019-03-03T06:45:03.422Z,80
2019-03-03T06:46:11.469Z,75
2019-03-03T06:47:19.547Z,95
2019-03-03T06:48:27.579Z,90
2019-03-03T06:49:35.656Z,90
2019-03-03T06:50:43.708Z,95
2019-03-03T06:51:51.755Z,100
2019-03-03T06:52:59.819Z,110
2019-03-03T06:54:07.870Z,115
2019-03-03T06:55:15.940Z,140
2019-03-03T06:56:24.607Z,150
2019-03-03T06:57:32.069Z,165
2019-03-03T06:58:40.122Z,155
2019-03-03T06:59:48.533Z,140
2019-03-03T07:00:56.243Z,140
2019-03-03T07:02:04.343Z,130
2019-03-03T07:03:12.369Z,135
2019-03-03T07:04:20.417Z,130
2019-03-03T07:05:28.480Z,135
2019-03-03T07:06:36.532Z,130
2019-03-03T07:07:44.593Z,125
2019-03-03T07:08:52.639Z,120
2019-03-03T07:10:00.734Z,125
2019-03-03T07:11:10.077Z,135
2019-03-03T07:12:16.825Z,135
2019-03-03T07:13:24.891Z,140
2019-03-03T07:14:32.955Z,140
2019-03-03T07:15:41.004Z,140
2019-03-03T07:16:49.069Z,135
2019-03-03T07:17:57.119Z,135
2019-03-03T07:19:05.202Z,140
2019-03-03T07:20:13.252Z,130
2019-03-03T07:21:21.297Z,120
2019-03-03T07:22:29.346Z,130
2019-03-03T07:23:37.453Z,125
2019-03-03T07:24:45.480Z,130
2019-03-03T07:25:53.548Z,170
2019-03-03T07:27:01.606Z,220
2019-03-03T07:28:09.664Z,215
2019-03-03T07:29:17.707Z,210
2019-03-03T07:30:25.786Z,220
2019-03-03T07:31:33.846Z,225
2019-03-03T07:32:41.957Z,220
2019-03-03T07:33:50.286Z,210
2019-03-03T07:34:58.266Z,215
2019-03-03T07:36:06.477Z,230
2019-03-03T07:37:14.503Z,215
2019-03-03T07:38:22.196Z,170
2019-03-03T07:39:30.261Z,210
2019-03-03T07:40:38.613Z,200
2019-03-03T07:41:46.393Z,175
2019-03-03T07:42:54.951Z,190
2019-03-03T07:44:02.828Z,190
2019-03-03T07:45:10.565Z,210
2019-03-03T07:46:18.640Z,205
2019-03-03T07:47:26.696Z,220
2019-03-03T07:48:34.848Z,230
2019-03-03T07:49:43.014Z,195
2019-03-03T07:50:51.132Z,175
2019-03-03T07:51:59.282Z,200
2019-03-03T07:53:07.225Z,225
2019-03-03T07:54:15.535Z,190
2019-03-03T07:55:23.135Z,185
2019-03-03T07:56:31.154Z,185
2019-03-03T07:57:39.221Z,235
2019-03-03T07:58:47.281Z,200
2019-03-03T07:59:55.345Z,175
2019-03-03T08:01:03.401Z,190
2019-03-03T08:02:11.478Z,195
2019-03-03T08:03:19.528Z,165
2019-03-03T08:04:27.583Z,175
2019-03-03T08:05:35.654Z,165
2019-03-03T08:06:43.725Z,170
2019-03-03T08:07:51.781Z,220
2019-03-03T08:08:59.848Z,280
2019-03-03T08:10:07.874Z,275
2019-03-03T08:11:15.963Z,305
2019-03-03T08:12:24.017Z,295
2019-03-03T08:13:32.094Z,305
2019-03-03T08:14:40.140Z,290
2019-03-03T08:15:48.193Z,265
2019-03-03T08:16:56.276Z,285
2019-03-03T08:18:04.343Z,325
2019-03-03T08:19:12.975Z,310
2019-03-03T08:20:20.895Z,295
2019-03-03T08:21:29.091Z,305
2019-03-03T08:22:36.578Z,295
2019-03-03T08:23:45.007Z,280
2019-03-03T08:24:53.352Z,315
2019-03-03T08:26:01.356Z,325
2019-03-03T08:27:09.413Z,325
2019-03-03T08:28:17.450Z,300
2019-03-03T08:29:25.500Z,260
2019-03-03T08:30:33.532Z,290
2019-03-03T08:31:41.112Z,300
2019-03-03T08:32:49.302Z,325
2019-03-03T08:33:57.233Z,285
2019-03-03T08:35:05.268Z,275
2019-03-03T08:36:13.334Z,290
2019-03-03T08:37:21.451Z,335
2019-03-03T08:38:29.748Z,330
2019-03-03T08:39:38.048Z,300
2019-03-03T08:40:45.925Z,340
2019-03-03T08:41:54.063Z,295
2019-03-03T08:43:04.095Z,255
2019-03-03T08:44:12.042Z,265
2019-03-03T08:45:18.483Z,280
2019-03-03T08:46:27.888Z,275
2019-03-03T08:47:36.639Z,265
2019-03-03T08:48:44.942Z,265
2019-03-03T08:49:52.102Z,245
2019-03-03T08:51:00.160Z,180
2019-03-03T08:52:08.198Z,170
2019-03-03T08:53:16.305Z,255
2019-03-03T08:54:24.932Z,250
2019-03-03T08:55:32.401Z,230
2019-03-03T08:56:40.473Z,195
2019-03-03T08:57:48.527Z,225
2019-03-03T08:58:56.589Z,295
2019-03-03T09:00:05.210Z,280
2019-03-03T09:01:12.754Z,240
2019-03-03T09:02:21.024Z,205
2019-03-03T09:03:29.162Z,195
2019-03-03T09:04:39.862Z,230
2019-03-03T09:05:47.779Z,210
2019-03-03T09:06:55.645Z,220
2019-03-03T09:08:04.067Z,225
2019-03-03T09:09:12.419Z,225
2019-03-03T09:10:25.309Z,195
2019-03-03T09:11:27.870Z,205
2019-03-03T09:12:36.223Z,215
2019-03-03T09:13:44.105Z,195
2019-03-03T09:14:52.325Z,210
2019-03-03T09:16:00.667Z,230
2019-03-03T09:17:08.195Z,200
2019-03-03T09:18:16.869Z,200
2019-03-03T09:19:24.330Z,200
2019-03-03T09:20:32.974Z,195
2019-03-03T09:21:40.452Z,205
2019-03-03T09:22:48.525Z,200
2019-03-03T09:23:56.578Z,240
2019-03-03T09:25:05.311Z,225
2019-03-03T09:26:12.717Z,200
2019-03-03T09:27:20.848Z,220
2019-03-03T09:28:28.885Z,215
2019-03-03T09:29:36.960Z,220
2019-03-03T09:30:45.478Z,235
2019-03-03T09:31:53.347Z,240
2019-03-03T09:33:01.745Z,265
2019-03-03T09:34:09.750Z,285
2019-03-03T09:35:17.704Z,285
2019-03-03T09:36:25.945Z,300
2019-03-03T09:37:33.912Z,295
2019-03-03T09:38:41.951Z,295
2019-03-03T09:39:52.343Z,310
2019-03-03T09:40:59.952Z,295
2019-03-03T09:42:07.992Z,290
2019-03-03T09:44:44.536Z,280
2019-03-03T09:45:41.287Z,270
2019-03-03T09:46:49.355Z,265
2019-03-03T09:48:16.663Z,255
2019-03-03T09:49:08.505Z,260
2019-03-03T09:50:13.526Z,275
2019-03-03T09:51:21.610Z,265
2019-03-03T09:52:29.660Z,265
2019-03-03T09:53:37.800Z,285
2019-03-03T09:54:45.804Z,265
2019-03-03T09:55:53.854Z,270
2019-03-03T09:57:01.910Z,275
2019-03-03T09:58:09.975Z,270
2019-03-03T09:59:18.027Z,295
2019-03-03T10:00:26.400Z,295
2019-03-03T10:01:34.165Z,310
2019-03-03T10:02:42.236Z,325
2019-03-03T10:03:50.282Z,330
2019-03-03T10:04:58.359Z,335
2019-03-03T10:06:16.937Z,345
2019-03-03T10:07:18.727Z,340
2019-03-03T10:08:26.779Z,340
2019-03-03T10:09:34.845Z,335
2019-03-03T10:10:42.911Z,330
2019-03-03T10:11:50.987Z,320
2019-03-03T10:12:59.032Z,310
2019-03-03T10:14:07.090Z,300
2019-03-03T10:15:15.175Z,290
2019-03-03T10:16:23.236Z,280
2019-03-03T10:17:31.286Z,285
2019-03-03T10:18:39.361Z,280
2019-03-03T10:19:47.397Z,280
2019-03-03T10:20:55.469Z,290
2019-03-03T10:22:03.553Z,290
2019-03-03T10:23:11.610Z,285
2019-03-03T10:24:19.691Z,280
2019-03-03T10:25:27.715Z,280
2019-03-03T10:26:36.847Z,275
2019-03-03T10:27:43.846Z,275
2019-03-03T10:28:51.939Z,265
2019-03-03T10:30:00.017Z,270
2019-03-03T10:31:08.038Z,280
2019-03-03T10:32:16.124Z,290
2019-03-03T10:33:24.199Z,290
2019-03-03T10:34:32.261Z,290
2019-03-03T10:35:40.321Z,285
2019-03-03T10:36:48.373Z,275
2019-03-03T10:37:56.448Z,295
2019-03-03T10:39:04.515Z,260
2019-03-03T10:40:12.570Z,230
2019-03-03T10:41:20.631Z,230
2019-03-03T10:42:28.800Z,270
2019-03-03T10:43:36.761Z,220
2019-03-03T10:44:44.830Z,210
2019-03-03T10:45:52.885Z,280
2019-03-03T10:47:00.994Z,225
2019-03-03T10:48:09.027Z,220
2019-03-03T10:49:17.068Z,210
2019-03-03T10:50:25.156Z,275
2019-03-03T10:51:33.222Z,260
2019-03-03T10:52:41.270Z,215
2019-03-03T10:53:49.335Z,315
2019-03-03T10:54:57.379Z,290
2019-03-03T10:56:05.481Z,255
2019-03-03T10:57:13.527Z,260
2019-03-03T10:58:21.604Z,290
2019-03-03T10:59:29.699Z,285
2019-03-03T11:00:37.696Z,325
2019-03-03T11:01:45.783Z,320
2019-03-03T11:02:53.837Z,330
2019-03-03T11:04:01.939Z,345
2019-03-03T11:05:10.003Z,385
2019-03-03T11:06:18.029Z,315
2019-03-03T11:07:26.121Z,290
2019-03-03T11:08:34.174Z,270
2019-03-03T11:09:42.265Z,280
2019-03-03T11:10:57.265Z,320
2019-03-03T11:11:58.387Z,290
2019-03-03T11:13:06.445Z,275
2019-03-03T11:14:14.499Z,270
2019-03-03T11:15:22.562Z,270
2019-03-03T11:16:30.645Z,265
2019-03-03T11:17:38.724Z,285
2019-03-03T11:18:55.734Z,275
2019-03-03T11:19:54.831Z,280
2019-03-03T11:21:02.909Z,280
2019-03-03T11:22:10.949Z,290
2019-03-03T11:23:19.030Z,360
2019-03-03T11:24:27.124Z,310
2019-03-03T11:25:35.161Z,335
2019-03-03T11:26:43.215Z,300
2019-03-03T11:27:51.305Z,310
2019-03-03T11:28:59.349Z,310
2019-03-03T11:30:07.393Z,375
2019-03-03T11:31:15.473Z,385
2019-03-03T11:32:23.564Z,360
2019-03-03T11:33:31.610Z,360
2019-03-03T11:34:39.683Z,370
2019-03-03T11:35:47.719Z,380
2019-03-03T11:36:55.819Z,425
2019-03-03T11:38:03.872Z,410
2019-03-03T11:39:11.947Z,405
2019-03-03T11:40:20.018Z,410
2019-03-03T11:41:28.053Z,410
2019-03-03T11:42:36.138Z,410
2019-03-03T11:43:44.190Z,420
2019-03-03T11:44:52.308Z,425
2019-03-03T11:46:00.333Z,445
2019-03-03T11:47:08.392Z,455
2019-03-03T11:48:16.446Z,460
2019-03-03T11:49:24.525Z,465
2019-03-03T11:50:32.589Z,480
2019-03-03T11:51:40.656Z,495
2019-03-03T11:52:48.735Z,485
2019-03-03T11:53:56.803Z,480
2019-03-03T11:55:04.875Z,475
2019-03-03T11:56:12.939Z,465
2019-03-03T11:57:21.764Z,425
2019-03-03T11:58:30.308Z,400
2019-03-03T11:59:38.101Z,390
2019-03-03T12:00:46.184Z,415
2019-03-03T12:01:54.246Z,410
2019-03-03T12:03:02.329Z,415
2019-03-03T12:04:15.435Z,415
2019-03-03T12:05:23.783Z,410
2019-03-03T12:06:38.217Z,410
2019-03-03T12:07:49.337Z,400
2019-03-03T12:08:54.350Z,380
2019-03-03T12:10:02.433Z,365
2019-03-03T12:11:19.424Z,350
2019-03-03T12:12:18.543Z,340
2019-03-03T12:13:26.615Z,335
2019-03-03T12:14:34.697Z,340
2019-03-03T12:15:42.768Z,315
2019-03-03T12:16:50.829Z,290
2019-03-03T12:17:58.886Z,305
2019-03-03T12:19:06.953Z,305
2019-03-03T12:20:15.023Z,345
2019-03-03T12:21:23.070Z,295
2019-03-03T12:23:42.046Z,290
2019-03-03T12:24:58.797Z,285
2019-03-03T12:26:00.593Z,295
2019-03-03T12:27:08.635Z,290
2019-03-03T12:28:16.753Z,330
2019-03-03T12:29:24.783Z,325
2019-03-03T12:30:32.856Z,355
2019-03-03T12:31:40.905Z,325
2019-03-03T12:32:48.970Z,370
2019-03-03T12:33:57.034Z,360
2019-03-03T12:35:05.119Z,315
2019-03-03T12:36:13.189Z,325
2019-03-03T12:37:21.252Z,335
2019-03-03T12:38:29.295Z,320
2019-03-03T12:39:37.345Z,310
2019-03-03T12:40:45.439Z,320
2019-03-03T12:41:53.520Z,315
2019-03-03T12:43:01.574Z,315
2019-03-03T12:44:09.630Z,315
2019-03-03T12:45:17.686Z,335
2019-03-03T12:46:25.767Z,340
2019-03-03T12:47:33.842Z,300
2019-03-03T12:48:41.903Z,265
2019-03-03T12:49:49.966Z,265
2019-03-03T12:50:58.011Z,260
2019-03-03T12:52:06.113Z,275
2019-03-03T12:53:14.172Z,310
2019-03-03T12:54:22.217Z,335
2019-03-03T12:55:30.286Z,360
2019-03-03T12:56:38.357Z,390
2019-03-03T12:57:46.430Z,410
2019-03-03T12:58:54.485Z,430
2019-03-03T13:00:02.550Z,450
2019-03-03T13:01:10.613Z,455
2019-03-03T13:02:19.316Z,445
2019-03-03T13:03:26.763Z,415
2019-03-03T13:04:34.838Z,395
2019-03-03T13:05:42.890Z,375
2019-03-03T13:06:50.970Z,350
2019-03-03T13:07:59.024Z,325
2019-03-03T13:09:07.081Z,300
2019-03-03T13:10:15.155Z,280
2019-03-03T13:11:23.234Z,260
2019-03-03T13:12:31.299Z,255
2019-03-03T13:13:39.358Z,235
2019-03-03T13:14:47.398Z,225
2019-03-03T13:15:55.534Z,220
2019-03-03T13:17:03.551Z,220
2019-03-03T13:18:11.624Z,215
2019-03-03T13:19:19.684Z,215
2019-03-03T13:20:27.736Z,225
2019-03-03T13:21:35.809Z,230
2019-03-03T13:22:43.888Z,230
2019-03-03T13:23:52.029Z,235
2019-03-03T13:25:00.152Z,245
2019-03-03T13:26:08.066Z,245
2019-03-03T13:27:16.151Z,250
2019-03-03T13:28:24.223Z,250
2019-03-03T13:29:32.280Z,255
2019-03-03T13:30:40.707Z,245
2019-03-03T13:31:48.400Z,240
2019-03-03T13:32:56.481Z,240
2019-03-03T13:34:04.562Z,240
2019-03-03T13:35:12.622Z,240
2019-03-03T13:36:20.675Z,240
2019-03-03T13:37:28.762Z,250
2019-03-03T13:38:36.820Z,260
2019-03-03T13:39:44.850Z,275
2019-03-03T13:40:52.982Z,295
2019-03-03T13:42:01.008Z,315
2019-03-03T13:43:09.092Z,330
2019-03-03T13:44:17.128Z,335
2019-03-03T13:45:25.208Z,340
2019-03-03T13:46:33.259Z,345
2019-03-03T13:47:41.348Z,340
2019-03-03T13:48:51.220Z,325
2019-03-03T13:49:57.441Z,290
2019-03-03T13:51:05.524Z,255
2019-03-03T13:52:13.609Z,230
2019-03-03T13:53:21.669Z,215
2019-03-03T13:54:29.724Z,220
2019-03-03T13:55:37.761Z,220
2019-03-03T13:56:45.860Z,220
2019-03-03T13:57:53.926Z,215
2019-03-03T13:59:01.987Z,220
2019-03-03T14:00:10.133Z,230
2019-03-03T14:01:18.110Z,245
2019-03-03T14:02:26.204Z,260
2019-03-03T14:03:34.251Z,270
2019-03-03T14:04:42.318Z,260
2019-03-03T14:05:50.396Z,255
2019-03-03T14:06:58.455Z,250
2019-03-03T14:08:06.525Z,250
2019-03-03T14:09:14.586Z,260
2019-03-03T14:10:22.649Z,255
2019-03-03T14:11:30.699Z,260
2019-03-03T14:12:38.757Z,265
2019-03-03T14:13:46.834Z,270
2019-03-03T14:14:54.919Z,275
2019-03-03T14:16:02.971Z,275
2019-03-03T14:17:11.038Z,270
2019-03-03T14:18:19.109Z,270
2019-03-03T14:19:27.162Z,275
2019-03-03T14:20:35.238Z,265
2019-03-03T14:21:43.305Z,255
2019-03-03T14:22:51.362Z,255
2019-03-03T14:23:59.440Z,285
2019-03-03T14:25:07.466Z,310
2019-03-03T14:26:15.564Z,315
2019-03-03T14:27:23.638Z,310
2019-03-03T14:28:31.687Z,310
2019-03-03T14:29:39.759Z,305
2019-03-03T14:30:47.807Z,305
2019-03-03T14:31:55.903Z,300
2019-03-03T14:33:03.958Z,285
2019-03-03T14:34:12.028Z,270
2019-03-03T14:35:20.097Z,265
2019-03-03T14:36:28.152Z,260
2019-03-03T14:37:36.225Z,260
2019-03-03T14:38:44.296Z,270
2019-03-03T14:39:52.352Z,270
2019-03-03T14:41:00.455Z,280
2019-03-03T14:42:08.496Z,275
2019-03-03T14:43:16.550Z,270
2019-03-03T14:44:24.611Z,265
2019-03-03T14:45:32.670Z,270
2019-03-03T14:46:40.746Z,290
2019-03-03T14:47:48.838Z,295
2019-03-03T14:48:56.877Z,280
2019-03-03T14:50:04.955Z,250
2019-03-03T14:51:13.031Z,220
2019-03-03T14:52:21.086Z,210
2019-03-03T14:53:29.141Z,220
2019-03-03T14:54:37.190Z,230
2019-03-03T14:55:45.279Z,245
2019-03-03T14:56:53.343Z,250
2019-03-03T14:58:01.416Z,225
2019-03-03T14:59:09.469Z,190
2019-03-03T15:00:17.518Z,175
2019-03-03T15:01:25.607Z,180
2019-03-03T15:02:33.668Z,190
2019-03-03T15:03:41.745Z,205
2019-03-03T15:04:49.799Z,220
2019-03-03T15:05:57.835Z,245
2019-03-03T15:07:05.929Z,250
2019-03-03T15:08:14.009Z,235
2019-03-03T15:09:22.088Z,210
2019-03-03T15:10:30.134Z,195
2019-03-03T15:11:38.176Z,190
2019-03-03T15:12:46.297Z,200
2019-03-03T15:13:54.334Z,195
2019-03-03T15:15:02.405Z,175
2019-03-03T15:16:10.451Z,160
2019-03-03T15:17:18.643Z,150
2019-03-03T15:18:26.587Z,145
2019-03-03T15:19:34.640Z,140
2019-03-03T15:20:42.718Z,135
2019-03-03T15:21:50.797Z,130
2019-03-03T15:22:58.862Z,130
2019-03-03T15:24:06.917Z,135
2019-03-03T15:25:14.984Z,130
2019-03-03T15:26:23.043Z,130
2019-03-03T15:27:31.111Z,135
2019-03-03T15:28:39.174Z,135
2019-03-03T15:29:47.228Z,140
2019-03-03T15:30:55.302Z,140
2019-03-03T15:32:03.373Z,135
2019-03-03T15:33:11.445Z,130
2019-03-03T15:34:19.504Z,130
2019-03-03T15:35:27.534Z,130
2019-03-03T15:36:35.643Z,130
2019-03-03T15:37:43.695Z,130
2019-03-03T15:38:51.744Z,135
2019-03-03T15:39:59.831Z,135
2019-03-03T15:41:07.867Z,130
2019-03-03T15:42:15.944Z,135
2019-03-03T15:43:24.024Z,135
2019-03-03T15:44:32.075Z,135
2019-03-03T15:45:40.160Z,140
2019-03-03T15:46:48.195Z,140
2019-03-03T15:47:56.267Z,140
2019-03-03T15:49:04.338Z,135
2019-03-03T15:50:12.416Z,125
2019-03-03T15:51:20.476Z,110
2019-03-03T15:52:28.537Z,95
2019-03-03T15:53:36.597Z,95
2019-03-03T15:54:44.670Z,90
2019-03-03T15:55:52.727Z,85
2019-03-03T15:57:00.793Z,85
2019-03-03T15:58:08.848Z,85
2019-03-03T15:59:16.928Z,85
2019-03-03T16:00:24.985Z,80
2019-03-03T16:01:33.049Z,80
2019-03-03T16:02:41.116Z,75
2019-03-03T16:03:49.182Z,80
2019-03-03T16:04:57.215Z,80
2019-03-03T16:06:05.294Z,80
2019-03-03T16:07:13.367Z,80